This is the latest recevied weather packets stored in our database for station/object DK8HC-WX. If no packets are shown the sender has not sent any weather packets the latest 10 day(s).
| Time | Temp. | Humidity | Pressure | Rain* | Wind** | Luminosity | Snow |
|---|---|---|---|---|---|---|---|
| 1777876308 | 26.11° C | 96% | 1014.6 hPa | - | - | - | - |
| 1777875708 | 24.44° C | 100% | 1014.2 hPa | - | - | - | - |
| 1777875107 | 20.56° C | 100% | 1014.1 hPa | - | - | - | - |
| 1777874508 | 16.67° C | 100% | 1013.8 hPa | - | - | - | - |
| 1777873907 | 17.22° C | 100% | 1013.7 hPa | - | - | - | - |
| 1777873308 | 17.78° C | 100% | 1013.7 hPa | - | - | - | - |
| 1777872707 | 18.89° C | 100% | 1013.7 hPa | - | - | - | - |
| 1777872108 | 16.67° C | 100% | 1013.4 hPa | - | - | - | - |
| 1777871507 | 15° C | 100% | 1013.3 hPa | - | - | - | - |
| 1777870908 | 15° C | 100% | 1013.4 hPa | - | - | - | - |
| 1777870308 | 15° C | 100% | 1013.3 hPa | - | - | - | - |
| 1777869708 | 15° C | 100% | 1013.3 hPa | - | - | - | - |
| 1777869107 | 15° C | 100% | 1013.2 hPa | - | - | - | - |
| 1777868507 | 15° C | 100% | 1013 hPa | - | - | - | - |
| 1777867908 | 15° C | 100% | 1013.1 hPa | - | - | - | - |
| 1777867307 | 15° C | 100% | 1013.1 hPa | - | - | - | - |
| 1777866707 | 15.56° C | 100% | 1013 hPa | - | - | - | - |
| 1777866107 | 15.56° C | 100% | 1013.1 hPa | - | - | - | - |
| 1777865507 | 15.56° C | 100% | 1013 hPa | - | - | - | - |
| 1777864907 | 15.56° C | 100% | 1013.1 hPa | - | - | - | - |
| 1777864307 | 15.56° C | 100% | 1013.1 hPa | - | - | - | - |
| 1777863707 | 15.56° C | 100% | 1012.9 hPa | - | - | - | - |
| 1777863107 | 15.56° C | 100% | 1013 hPa | - | - | - | - |
| 1777862507 | 15.56° C | 100% | 1012.9 hPa | - | - | - | - |
| 1777861907 | 15.56° C | 100% | 1012.8 hPa | - | - | - | - |
* Rain since midnight (hover to see other rain measurements)
** Current wind speed in m/s (hover to see current wind gust speed)